Time;durP1;ratioP1;P1;durP2;ratioP2;P2;SDS_P1;SDS_P2;PMS_P1;PMS_P2;Temp;Humidity;BMP_temperature;BMP_pressure;BME280_temperature;BME280_humidity;BME280_pressure;Samples;Min_cycle;Max_cycle;Signal;HPM_P1;HPM_P2
2021/08/17 00:00:41;;;;;;;65.33;21.83;;;12.20;99.90;;;;;;5079435;28;20202;-73
2021/08/17 00:03:11;;;;;;;61.10;20.17;;;12.20;99.90;;;;;;5080028;28;20180;-73
2021/08/17 00:05:44;;;;;;;68.57;21.93;;;12.20;99.90;;;;;;5079389;28;20184;-73
2021/08/17 00:08:55;;;;;;;59.03;21.07;;;12.20;99.90;;;;;;5079686;28;21462;-73
2021/08/17 00:11:23;;;;;;;63.90;21.97;;;12.10;99.90;;;;;;5076424;28;20180;-73
2021/08/17 00:13:52;;;;;;;61.33;22.37;;;12.20;99.90;;;;;;5078292;28;20183;-72
2021/08/17 00:16:20;;;;;;;66.07;21.83;;;12.20;99.90;;;;;;5083931;28;20180;-73
2021/08/17 00:18:48;;;;;;;69.73;22.10;;;12.20;99.90;;;;;;5080178;28;20417;-73
2021/08/17 00:21:18;;;;;;;60.17;20.53;;;12.30;99.90;;;;;;5078669;28;20218;-73
2021/08/17 00:23:46;;;;;;;68.47;21.97;;;12.30;99.90;;;;;;5080178;28;20184;-73
2021/08/17 00:26:16;;;;;;;65.37;21.10;;;12.30;99.90;;;;;;5080087;28;20180;-73
2021/08/17 00:28:47;;;;;;;65.10;22.17;;;12.30;99.90;;;;;;5081076;28;20172;-73
2021/08/17 00:31:15;;;;;;;69.27;22.13;;;12.30;99.90;;;;;;5078841;28;20262;-72
2021/08/17 00:33:43;;;;;;;64.53;22.37;;;12.30;99.90;;;;;;5078963;28;20313;-73
2021/08/17 00:36:12;;;;;;;61.30;23.50;;;12.30;99.90;;;;;;5085909;28;20175;-73
2021/08/17 00:38:41;;;;;;;66.23;23.37;;;12.30;99.90;;;;;;5081213;28;20184;-73
2021/08/17 00:41:10;;;;;;;65.97;21.67;;;12.30;99.90;;;;;;5080074;28;20358;-73
2021/08/17 00:43:40;;;;;;;69.13;22.93;;;12.30;99.90;;;;;;5079086;28;20212;-74
2021/08/17 00:46:09;;;;;;;68.87;23.00;;;12.30;99.90;;;;;;5079433;28;20191;-73
2021/08/17 00:48:37;;;;;;;69.17;22.97;;;12.40;99.90;;;;;;5084040;28;20198;-73
2021/08/17 00:51:08;;;;;;;62.40;22.30;;;12.40;99.90;;;;;;5093294;28;20180;-73
2021/08/17 00:53:36;;;;;;;67.00;23.33;;;12.40;99.90;;;;;;5080797;28;20188;-73
2021/08/17 00:56:06;;;;;;;73.50;23.90;;;12.40;99.90;;;;;;5081359;28;20183;-73
2021/08/17 00:58:35;;;;;;;72.40;23.87;;;12.40;99.90;;;;;;5085467;28;20191;-73
2021/08/17 01:01:05;;;;;;;63.73;23.97;;;12.40;99.90;;;;;;5078700;28;20192;-72
2021/08/17 01:03:37;;;;;;;67.47;23.23;;;12.40;99.90;;;;;;5080342;28;20203;-73
2021/08/17 01:06:06;;;;;;;66.33;23.83;;;12.40;99.90;;;;;;5078525;28;20202;-73
2021/08/17 01:08:35;;;;;;;64.97;23.23;;;12.40;99.90;;;;;;5080355;28;20184;-73
2021/08/17 01:11:03;;;;;;;72.17;23.87;;;12.40;99.90;;;;;;5078585;28;20168;-73
2021/08/17 01:13:32;;;;;;;69.43;23.47;;;12.40;99.90;;;;;;5079857;28;20258;-72
2021/08/17 01:16:00;;;;;;;77.07;23.87;;;12.40;99.90;;;;;;5080112;28;20180;-73
2021/08/17 01:18:30;;;;;;;66.80;23.17;;;12.40;99.90;;;;;;5094103;28;20183;-73
2021/08/17 01:20:59;;;;;;;66.47;23.53;;;12.40;99.90;;;;;;5079697;28;20223;-73
2021/08/17 01:23:31;;;;;;;70.13;23.23;;;12.40;99.90;;;;;;5080003;28;20182;-73
2021/08/17 01:26:00;;;;;;;77.33;25.47;;;12.40;99.90;;;;;;5077554;28;20214;-73
2021/08/17 01:28:28;;;;;;;69.17;24.23;;;12.30;99.90;;;;;;5079784;28;20234;-72
2021/08/17 01:31:01;;;;;;;62.53;21.13;;;12.30;99.90;;;;;;5079594;28;20249;-73
2021/08/17 01:33:30;;;;;;;69.23;22.83;;;12.30;99.90;;;;;;5079824;28;20189;-73
2021/08/17 01:36:00;;;;;;;68.37;23.80;;;12.30;99.90;;;;;;5077311;28;20438;-72
2021/08/17 01:38:29;;;;;;;63.30;22.63;;;12.30;99.90;;;;;;5079806;28;20195;-73
2021/08/17 01:40:58;;;;;;;69.90;23.47;;;12.40;99.90;;;;;;5075631;28;20227;-73
2021/08/17 01:43:27;;;;;;;71.53;22.83;;;12.40;99.90;;;;;;5079614;28;20191;-73
2021/08/17 01:45:58;;;;;;;75.70;23.37;;;12.30;99.90;;;;;;5077388;28;20184;-73
2021/08/17 01:48:29;;;;;;;65.17;22.40;;;12.40;99.90;;;;;;5079720;28;20330;-73
2021/08/17 01:50:57;;;;;;;64.63;22.20;;;12.40;99.90;;;;;;5079024;28;20214;-73
2021/08/17 01:53:26;;;;;;;64.20;22.53;;;12.40;99.90;;;;;;5078847;28;20423;-73
2021/08/17 01:55:55;;;;;;;67.37;22.03;;;12.40;99.90;;;;;;5078166;28;20180;-74
2021/08/17 01:58:24;;;;;;;63.47;21.97;;;12.40;99.90;;;;;;5094518;28;20176;-72
2021/08/17 02:00:54;;;;;;;69.63;22.30;;;12.40;99.90;;;;;;5077290;28;20196;-73
2021/08/17 02:03:22;;;;;;;67.23;22.53;;;12.30;99.90;;;;;;5080917;28;20315;-73
2021/08/17 02:05:51;;;;;;;71.43;22.53;;;12.40;99.90;;;;;;5081759;28;20183;-73
2021/08/17 02:08:19;;;;;;;66.53;22.63;;;12.40;99.90;;;;;;5083019;28;20184;-73
2021/08/17 02:10:47;;;;;;;63.03;21.60;;;12.40;99.90;;;;;;5082637;28;20164;-73
2021/08/17 02:13:17;;;;;;;63.97;21.57;;;12.40;99.90;;;;;;5083269;28;20172;-72
2021/08/17 02:15:46;;;;;;;67.00;22.13;;;12.40;99.90;;;;;;5082180;28;20186;-74
2021/08/17 02:18:16;;;;;;;60.30;21.70;;;12.40;99.90;;;;;;5085946;28;20186;-73
2021/08/17 02:20:44;;;;;;;62.30;21.57;;;12.40;99.90;;;;;;5079847;28;20184;-74
2021/08/17 02:23:13;;;;;;;61.03;21.00;;;12.30;99.90;;;;;;5084377;28;20193;-74
2021/08/17 02:25:42;;;;;;;63.70;21.83;;;12.30;99.90;;;;;;5080313;28;20184;-73
2021/08/17 02:28:10;;;;;;;64.33;21.63;;;12.30;99.90;;;;;;5082053;28;20234;-73
2021/08/17 02:30:38;;;;;;;63.20;21.13;;;12.30;99.90;;;;;;5080659;28;20208;-73
2021/08/17 02:33:07;;;;;;;62.37;22.83;;;12.30;99.90;;;;;;5078466;28;20183;-74
2021/08/17 02:35:36;;;;;;;65.73;22.13;;;12.30;99.90;;;;;;5083194;28;20188;-73
2021/08/17 02:38:05;;;;;;;64.93;22.57;;;12.40;99.90;;;;;;5083185;28;20188;-74
2021/08/17 02:40:34;;;;;;;64.87;22.43;;;12.40;99.90;;;;;;5075669;28;20207;-73
2021/08/17 02:43:03;;;;;;;65.67;22.40;;;12.40;99.90;;;;;;5078331;28;20180;-73
2021/08/17 02:45:31;;;;;;;66.07;20.73;;;12.40;99.90;;;;;;5083044;28;20358;-72
2021/08/17 02:48:01;;;;;;;70.37;22.43;;;12.40;99.90;;;;;;5082971;28;20183;-73
2021/08/17 02:50:30;;;;;;;70.03;22.50;;;12.30;99.90;;;;;;5082006;28;20295;-73
2021/08/17 02:53:00;;;;;;;65.10;21.63;;;12.30;99.90;;;;;;5078810;28;20319;-71
2021/08/17 02:55:28;;;;;;;66.07;22.33;;;12.30;99.90;;;;;;5078275;28;20176;-74
2021/08/17 02:57:59;;;;;;;63.63;22.27;;;12.30;99.90;;;;;;5080776;28;20188;-73
2021/08/17 03:00:28;;;;;;;62.63;21.93;;;12.30;99.90;;;;;;5081595;28;20203;-73
2021/08/17 03:02:56;;;;;;;66.03;22.57;;;12.30;99.90;;;;;;5088599;28;20176;-74
2021/08/17 03:05:24;;;;;;;59.93;21.47;;;12.30;99.90;;;;;;5081917;28;20187;-73
2021/08/17 03:07:54;;;;;;;59.03;20.80;;;12.30;99.90;;;;;;5081349;28;20191;-73
2021/08/17 03:10:25;;;;;;;62.67;21.00;;;12.20;99.90;;;;;;5082628;28;20259;-74
2021/08/17 03:12:53;;;;;;;66.97;22.43;;;12.20;99.90;;;;;;5078646;28;20187;-73
2021/08/17 03:15:22;;;;;;;59.37;20.97;;;12.20;99.90;;;;;;5082171;28;20184;-73
2021/08/17 03:17:51;;;;;;;66.47;22.40;;;12.20;99.90;;;;;;5082664;28;20283;-73
2021/08/17 03:20:20;;;;;;;60.73;21.67;;;12.20;99.90;;;;;;5080501;28;20186;-73
2021/08/17 03:22:49;;;;;;;60.60;21.63;;;12.20;99.90;;;;;;5084083;28;20255;-74
2021/08/17 03:25:20;;;;;;;61.40;21.73;;;12.20;99.90;;;;;;5081059;28;20731;-73
2021/08/17 03:27:50;;;;;;;59.50;21.40;;;12.20;99.90;;;;;;5079052;28;20405;-74
2021/08/17 03:30:20;;;;;;;74.07;22.70;;;12.20;99.90;;;;;;5083705;28;20183;-73
2021/08/17 03:32:48;;;;;;;57.93;20.90;;;12.20;99.90;;;;;;5079780;28;20443;-73
2021/08/17 03:35:19;;;;;;;67.67;23.20;;;12.20;99.90;;;;;;5082868;28;20411;-73
2021/08/17 03:37:47;;;;;;;69.30;22.67;;;12.20;99.90;;;;;;5080176;28;20219;-73
2021/08/17 03:40:18;;;;;;;68.77;21.53;;;12.30;99.90;;;;;;5078707;28;20175;-74
2021/08/17 03:42:47;;;;;;;63.03;21.47;;;12.20;99.90;;;;;;5078856;28;20472;-73
2021/08/17 03:45:19;;;;;;;65.33;21.03;;;12.20;99.90;;;;;;5080434;28;20307;-73
2021/08/17 03:47:48;;;;;;;63.30;21.50;;;12.20;99.90;;;;;;5076120;28;20226;-73
2021/08/17 03:50:18;;;;;;;62.80;21.20;;;12.20;99.90;;;;;;5081105;28;20180;-73
2021/08/17 03:52:46;;;;;;;64.83;21.20;;;12.20;99.90;;;;;;5081509;28;20187;-72
2021/08/17 03:55:19;;;;;;;61.47;21.37;;;12.20;99.90;;;;;;5080477;28;20199;-73
2021/08/17 03:57:48;;;;;;;61.17;21.97;;;12.20;99.90;;;;;;5080634;28;20180;-73
2021/08/17 04:00:25;;;;;;;68.40;21.30;;;12.20;99.90;;;;;;5079331;28;20180;-73
2021/08/17 04:02:53;;;;;;;59.67;20.27;;;12.10;99.90;;;;;;5080101;28;20496;-73
2021/08/17 04:05:22;;;;;;;63.70;20.93;;;12.10;99.90;;;;;;5094333;28;20435;-73
2021/08/17 04:07:51;;;;;;;67.17;21.20;;;12.10;99.90;;;;;;5078829;28;20184;-73
2021/08/17 04:10:20;;;;;;;66.97;21.97;;;12.10;99.90;;;;;;5081022;28;20433;-72
2021/08/17 04:12:49;;;;;;;67.73;22.07;;;12.10;99.90;;;;;;5079137;28;20176;-73
2021/08/17 04:15:18;;;;;;;57.20;21.13;;;12.10;99.90;;;;;;5084057;28;20219;-74
2021/08/17 04:17:46;;;;;;;62.93;21.33;;;12.10;99.90;;;;;;5084649;28;20241;-73
2021/08/17 04:20:16;;;;;;;62.73;21.93;;;12.10;99.90;;;;;;5100378;28;20346;-73
2021/08/17 04:22:44;;;;;;;61.50;21.67;;;12.10;99.90;;;;;;5079255;28;20242;-73
2021/08/17 04:25:12;;;;;;;60.53;20.63;;;12.10;99.90;;;;;;5077959;28;20187;-74
2021/08/17 04:27:41;;;;;;;61.37;19.27;;;12.10;99.90;;;;;;5080984;28;20461;-73
2021/08/17 04:30:10;;;;;;;65.33;21.50;;;12.00;99.90;;;;;;5080115;28;20184;-73
2021/08/17 04:32:40;;;;;;;67.77;21.40;;;12.00;99.90;;;;;;5094676;28;20179;-73
2021/08/17 04:35:09;;;;;;;62.67;19.80;;;12.00;99.90;;;;;;5079117;28;20180;-73
2021/08/17 04:37:38;;;;;;;62.30;20.03;;;12.00;99.90;;;;;;5078024;28;20176;-73
2021/08/17 04:40:08;;;;;;;68.83;20.47;;;12.00;99.90;;;;;;5078572;28;20188;-73
2021/08/17 04:42:36;;;;;;;60.27;19.63;;;12.00;99.90;;;;;;5080762;28;20218;-73
2021/08/17 04:45:05;;;;;;;58.77;19.73;;;12.00;99.90;;;;;;5079258;28;20184;-73
2021/08/17 04:47:34;;;;;;;53.37;19.97;;;12.00;99.90;;;;;;5081793;28;20180;-73
2021/08/17 04:50:04;;;;;;;58.40;20.40;;;12.00;99.90;;;;;;5079735;28;20180;-73
2021/08/17 04:52:32;;;;;;;63.60;19.70;;;12.00;99.90;;;;;;5078918;28;20198;-71
2021/08/17 04:55:00;;;;;;;58.50;18.97;;;12.00;99.90;;;;;;5079479;28;20192;-74
2021/08/17 04:57:33;;;;;;;56.03;18.90;;;12.00;99.90;;;;;;5079287;28;20187;-73
2021/08/17 05:00:01;;;;;;;56.73;19.77;;;12.00;99.90;;;;;;5080046;28;20330;-74
2021/08/17 05:02:29;;;;;;;56.87;19.13;;;12.00;99.90;;;;;;5076355;28;20469;-74
2021/08/17 05:04:58;;;;;;;55.43;19.03;;;12.10;99.90;;;;;;5077747;28;20255;-73
2021/08/17 05:07:28;;;;;;;54.77;18.30;;;12.10;99.90;;;;;;5082867;28;20176;-73
2021/08/17 05:09:56;;;;;;;54.27;18.43;;;12.10;99.90;;;;;;5082004;28;20256;-73
2021/08/17 05:12:24;;;;;;;49.10;18.00;;;12.10;99.90;;;;;;5078416;28;20181;-73
2021/08/17 05:14:52;;;;;;;51.07;17.87;;;12.10;99.90;;;;;;5080247;28;20184;-73
2021/08/17 05:17:40;;;;;;;48.47;17.67;;;12.10;99.90;;;;;;5080210;28;20255;-73
2021/08/17 05:20:11;;;;;;;47.63;17.30;;;12.10;99.90;;;;;;5074678;28;20176;-73
2021/08/17 05:22:45;;;;;;;50.20;17.73;;;12.10;99.90;;;;;;5078795;28;20207;-73
2021/08/17 05:25:15;;;;;;;55.07;18.27;;;12.10;99.90;;;;;;5080119;28;20180;-73
2021/08/17 05:27:49;;;;;;;56.77;18.93;;;12.00;99.90;;;;;;5078744;28;20184;-73
2021/08/17 05:30:18;;;;;;;49.47;17.87;;;12.00;99.90;;;;;;5078640;28;20187;-73
2021/08/17 05:32:47;;;;;;;52.60;17.87;;;12.10;99.90;;;;;;5077556;28;20172;-72
2021/08/17 05:35:15;;;;;;;48.80;17.57;;;12.00;99.90;;;;;;5077002;28;20176;-73
2021/08/17 05:37:45;;;;;;;48.30;16.80;;;12.10;99.90;;;;;;5083970;28;20196;-73
2021/08/17 05:40:14;;;;;;;56.77;18.37;;;12.10;99.90;;;;;;5083219;28;20327;-73
2021/08/17 05:42:42;;;;;;;47.77;17.67;;;12.20;99.90;;;;;;5081158;28;20208;-73
2021/08/17 05:45:11;;;;;;;49.00;17.70;;;12.30;99.90;;;;;;5083119;28;20202;-73
2021/08/17 05:47:44;;;;;;;44.10;16.37;;;12.40;99.90;;;;;;5084085;28;20188;-73
2021/08/17 05:50:13;;;;;;;49.50;16.97;;;12.40;99.90;;;;;;5083465;28;20199;-73
2021/08/17 05:52:42;;;;;;;47.73;16.50;;;12.50;99.90;;;;;;5083747;28;20183;-73
2021/08/17 05:55:12;;;;;;;48.97;17.33;;;12.60;99.90;;;;;;5081748;28;20183;-73
2021/08/17 05:57:41;;;;;;;38.87;16.80;;;12.70;99.90;;;;;;5083863;28;20428;-73
2021/08/17 06:00:13;;;;;;;40.63;16.20;;;12.70;99.90;;;;;;5081559;28;20180;-73
2021/08/17 06:02:41;;;;;;;43.23;17.13;;;12.80;99.90;;;;;;5085166;28;20206;-73
2021/08/17 06:05:10;;;;;;;42.20;16.03;;;12.90;99.90;;;;;;5089806;28;20187;-73
2021/08/17 06:07:44;;;;;;;44.73;16.80;;;12.90;99.90;;;;;;5082179;28;20180;-73
2021/08/17 06:10:14;;;;;;;40.20;16.57;;;13.00;99.90;;;;;;5098544;28;20426;-72
2021/08/17 06:12:43;;;;;;;42.50;15.83;;;13.10;99.90;;;;;;5084155;28;20180;-72
2021/08/17 06:15:13;;;;;;;41.30;16.33;;;13.10;99.90;;;;;;5089925;28;20186;-72
2021/08/17 06:17:41;;;;;;;44.00;16.00;;;13.30;99.90;;;;;;5084357;28;20184;-72
2021/08/17 06:20:11;;;;;;;39.83;16.47;;;13.50;99.90;;;;;;5085815;28;20187;-71
2021/08/17 06:22:39;;;;;;;34.33;14.50;;;13.70;99.90;;;;;;5082603;28;20469;-71
2021/08/17 06:25:09;;;;;;;33.03;14.00;;;13.90;99.90;;;;;;5084038;28;20184;-72
2021/08/17 06:27:39;;;;;;;34.40;13.93;;;14.00;99.90;;;;;;5081411;28;20188;-72
2021/08/17 06:30:08;;;;;;;31.40;14.33;;;14.10;99.90;;;;;;5084079;28;20200;-71
2021/08/17 06:32:53;;;;;;;33.07;14.23;;;14.10;99.90;;;;;;5084200;28;20180;-71
2021/08/17 06:35:21;;;;;;;31.13;14.00;;;14.10;99.90;;;;;;5086901;28;20716;-71
2021/08/17 06:37:49;;;;;;;30.10;13.50;;;14.10;99.90;;;;;;5082686;28;20203;-72
2021/08/17 06:40:18;;;;;;;29.53;14.03;;;14.30;99.90;;;;;;5084034;28;20442;-71
2021/08/17 06:42:48;;;;;;;31.43;13.83;;;14.40;99.90;;;;;;5079686;28;20200;-73
2021/08/17 06:45:17;;;;;;;32.93;13.30;;;14.60;99.90;;;;;;5078571;28;20576;-73
2021/08/17 06:47:46;;;;;;;33.07;13.27;;;14.70;99.90;;;;;;5082243;28;20230;-73
2021/08/17 06:50:35;;;;;;;31.97;13.63;;;14.70;99.90;;;;;;5081878;28;20271;-72
2021/08/17 06:53:03;;;;;;;28.97;13.33;;;14.70;99.90;;;;;;5084259;28;20217;-72
2021/08/17 06:55:32;;;;;;;28.20;12.40;;;14.70;99.90;;;;;;5084972;28;20196;-71
2021/08/17 06:58:02;;;;;;;28.60;11.97;;;14.70;99.90;;;;;;5080857;28;20199;-71
2021/08/17 07:00:30;;;;;;;28.00;12.03;;;14.80;99.90;;;;;;5081142;28;20180;-71
2021/08/17 07:02:58;;;;;;;23.03;11.07;;;14.80;99.90;;;;;;5078614;28;20272;-71
2021/08/17 07:05:34;;;;;;;26.10;11.97;;;14.80;99.90;;;;;;5085852;28;20302;-70
2021/08/17 07:08:04;;;;;;;23.90;11.07;;;14.80;99.90;;;;;;5081725;28;20184;-70
2021/08/17 07:10:32;;;;;;;28.03;11.97;;;14.80;99.90;;;;;;5081571;28;20175;-70
2021/08/17 07:13:14;;;;;;;28.73;12.37;;;14.80;99.90;;;;;;5080696;28;20222;-70
2021/08/17 07:15:43;;;;;;;22.40;11.87;;;14.90;99.90;;;;;;5082049;28;20187;-70
2021/08/17 07:18:11;;;;;;;21.50;10.47;;;14.90;99.90;;;;;;5080149;28;20180;-69
2021/08/17 07:20:41;;;;;;;25.50;12.07;;;15.00;99.90;;;;;;5077636;28;20560;-71
2021/08/17 07:23:09;;;;;;;25.83;11.40;;;15.10;99.90;;;;;;5080758;28;20212;-70
2021/08/17 07:25:38;;;;;;;23.97;11.17;;;15.10;99.90;;;;;;5076942;28;20323;-70
2021/08/17 07:28:07;;;;;;;23.00;11.20;;;15.20;99.90;;;;;;5080085;28;20311;-70
2021/08/17 07:30:37;;;;;;;23.03;10.77;;;15.30;99.90;;;;;;5078460;28;20211;-71
2021/08/17 07:33:05;;;;;;;25.33;11.40;;;15.40;99.90;;;;;;5082890;28;20188;-71
2021/08/17 07:35:33;;;;;;;24.20;11.17;;;15.50;99.90;;;;;;5080058;28;20202;-70
2021/08/17 07:38:02;;;;;;;23.23;11.00;;;15.70;99.90;;;;;;5085847;28;20188;-70
2021/08/17 07:40:30;;;;;;;20.00;10.83;;;15.80;99.90;;;;;;5078835;28;20194;-70
2021/08/17 07:42:59;;;;;;;24.97;11.47;;;15.90;99.90;;;;;;5078229;28;20205;-71
2021/08/17 07:45:27;;;;;;;18.40;10.40;;;15.80;99.90;;;;;;5080069;28;20181;-71
2021/08/17 07:48:17;;;;;;;24.90;10.90;;;15.80;99.90;;;;;;5075932;28;20208;-70
2021/08/17 07:50:45;;;;;;;24.50;10.97;;;15.80;99.90;;;;;;5081051;28;20187;-70
2021/08/17 07:53:13;;;;;;;22.67;10.30;;;15.80;99.90;;;;;;5076088;28;20172;-71
2021/08/17 07:55:42;;;;;;;26.77;10.50;;;15.80;99.90;;;;;;5078549;28;20209;-70
2021/08/17 07:58:11;;;;;;;23.83;11.10;;;15.80;99.90;;;;;;5077799;28;20339;-70
2021/08/17 08:00:39;;;;;;;20.00;10.20;;;15.80;99.90;;;;;;5081656;28;20411;-70
2021/08/17 08:03:08;;;;;;;18.70;9.70;;;15.90;99.90;;;;;;5082274;28;20505;-70
2021/08/17 08:05:38;;;;;;;18.97;9.83;;;15.90;99.90;;;;;;5089601;28;20184;-71
2021/08/17 08:08:06;;;;;;;20.33;10.20;;;15.90;99.90;;;;;;5090508;28;20188;-70
2021/08/17 08:10:34;;;;;;;20.43;9.90;;;16.00;99.90;;;;;;5076945;28;20399;-70
2021/08/17 08:13:03;;;;;;;17.90;9.73;;;16.00;99.90;;;;;;5080500;28;20181;-70
2021/08/17 08:15:32;;;;;;;19.97;9.60;;;16.00;99.90;;;;;;5081145;28;20319;-71
2021/08/17 08:18:00;;;;;;;22.13;10.17;;;15.90;99.90;;;;;;5079991;28;20177;-71
2021/08/17 08:20:28;;;;;;;18.60;9.70;;;15.90;99.90;;;;;;5081734;28;20176;-71
2021/08/17 08:22:58;;;;;;;20.80;10.40;;;15.80;99.90;;;;;;5079995;28;20317;-69
2021/08/17 08:25:27;;;;;;;13.80;9.17;;;15.80;99.90;;;;;;5082797;28;20195;-70
2021/08/17 08:27:55;;;;;;;18.97;9.90;;;15.80;99.90;;;;;;5080876;28;20192;-71
2021/08/17 08:30:23;;;;;;;15.93;9.27;;;15.80;99.90;;;;;;5074530;28;20185;-71
2021/08/17 08:32:51;;;;;;;17.90;9.10;;;15.90;99.90;;;;;;5082185;28;20181;-71
2021/08/17 08:35:21;;;;;;;19.97;9.77;;;15.90;99.90;;;;;;5077793;28;20199;-71
2021/08/17 08:37:49;;;;;;;19.93;9.97;;;16.00;99.90;;;;;;5077769;28;20181;-70
2021/08/17 08:40:19;;;;;;;21.40;9.50;;;16.00;99.90;;;;;;5076995;28;20263;-71
2021/08/17 08:42:48;;;;;;;17.67;9.77;;;16.00;99.90;;;;;;5080719;28;20324;-70
2021/08/17 08:45:18;;;;;;;21.00;10.50;;;16.10;99.90;;;;;;5078888;28;20231;-70
2021/08/17 08:47:47;;;;;;;17.70;9.43;;;16.10;99.90;;;;;;5080309;28;20215;-71
2021/08/17 08:50:16;;;;;;;20.63;9.20;;;16.10;99.90;;;;;;5075211;28;20181;-69
2021/08/17 08:52:47;;;;;;;20.90;9.70;;;16.30;99.90;;;;;;5081337;28;20204;-71
2021/08/17 08:55:16;;;;;;;17.03;9.47;;;16.30;99.90;;;;;;5079349;28;20188;-70
2021/08/17 08:57:45;;;;;;;17.73;10.00;;;16.30;99.90;;;;;;5077443;28;20286;-71
2021/08/17 09:00:14;;;;;;;16.50;8.97;;;16.40;99.90;;;;;;5080581;28;20411;-71
2021/08/17 09:02:44;;;;;;;19.60;9.47;;;16.70;99.90;;;;;;5079195;28;20188;-71
2021/08/17 09:05:13;;;;;;;19.03;9.33;;;16.70;99.90;;;;;;5080293;28;20522;-71
2021/08/17 09:07:43;;;;;;;19.00;8.70;;;16.80;99.90;;;;;;5078183;28;20183;-72
2021/08/17 09:10:13;;;;;;;19.03;8.90;;;16.80;99.90;;;;;;5077363;28;20184;-70
2021/08/17 09:12:45;;;;;;;17.10;8.80;;;16.70;99.90;;;;;;5076295;28;20247;-71
2021/08/17 09:15:16;;;;;;;18.87;8.10;;;16.60;99.90;;;;;;5082894;28;20317;-72
2021/08/17 09:17:58;;;;;;;20.07;9.60;;;16.50;99.90;;;;;;5076897;28;20174;-70
2021/08/17 09:20:33;;;;;;;18.43;8.40;;;16.30;99.90;;;;;;5081389;28;20175;-70
2021/08/17 09:23:21;;;;;;;15.33;8.20;;;16.30;99.90;;;;;;5078920;28;20194;-71
2021/08/17 09:25:49;;;;;;;18.00;9.73;;;16.20;99.90;;;;;;5075021;28;20215;-71
2021/08/17 09:28:30;;;;;;;14.07;7.97;;;16.20;99.90;;;;;;5096264;28;20184;-70
2021/08/17 09:31:00;;;;;;;16.67;8.57;;;16.10;99.90;;;;;;5079042;28;20219;-71
2021/08/17 09:33:36;;;;;;;15.80;8.73;;;16.00;99.90;;;;;;5082127;28;20181;-72
2021/08/17 09:36:06;;;;;;;17.73;8.07;;;16.10;99.90;;;;;;5080955;28;20180;-71
2021/08/17 09:38:34;;;;;;;12.73;7.47;;;16.00;99.90;;;;;;5078383;28;20404;-70
2021/08/17 09:41:18;;;;;;;16.50;7.80;;;15.90;99.90;;;;;;5081166;28;20184;-71
2021/08/17 09:43:59;;;;;;;14.23;7.90;;;15.90;99.90;;;;;;5074828;28;20192;-71
2021/08/17 09:46:31;;;;;;;15.00;7.67;;;15.80;99.90;;;;;;5077795;28;20184;-70
2021/08/17 09:49:18;;;;;;;11.60;7.07;;;15.80;99.90;;;;;;5080118;28;20218;-71
2021/08/17 09:51:46;;;;;;;8.93;6.77;;;15.80;99.90;;;;;;5075334;28;20429;-71
2021/08/17 09:54:19;;;;;;;14.13;7.63;;;15.80;99.90;;;;;;5074171;28;20176;-70
2021/08/17 09:56:56;;;;;;;9.60;6.67;;;15.80;99.90;;;;;;5078469;28;20667;-71
2021/08/17 09:59:28;;;;;;;13.17;7.67;;;15.70;99.90;;;;;;5079271;28;20318;-73
2021/08/17 10:01:56;;;;;;;13.47;7.77;;;15.70;99.90;;;;;;5084178;28;20239;-73
2021/08/17 10:04:26;;;;;;;12.57;7.43;;;15.70;99.90;;;;;;5076746;28;20390;-73
2021/08/17 10:06:55;;;;;;;12.67;7.90;;;15.70;99.90;;;;;;5082642;28;20189;-73
2021/08/17 10:09:24;;;;;;;14.87;7.57;;;15.60;99.90;;;;;;5074988;28;20184;-72
2021/08/17 10:11:53;;;;;;;16.20;7.60;;;15.50;99.90;;;;;;5076310;28;20436;-72
2021/08/17 10:14:22;;;;;;;11.40;7.77;;;15.60;99.90;;;;;;5074558;28;20177;-72
2021/08/17 10:16:51;;;;;;;16.83;8.00;;;15.40;99.90;;;;;;5078186;28;20214;-72
2021/08/17 10:19:22;;;;;;;12.97;7.00;;;15.50;99.90;;;;;;5081753;28;20182;-71
2021/08/17 10:21:52;;;;;;;15.07;7.53;;;15.50;99.90;;;;;;5080607;28;20206;-73
2021/08/17 10:24:32;;;;;;;14.43;7.73;;;15.40;99.90;;;;;;5083846;28;20477;-73
2021/08/17 10:27:26;;;;;;;16.97;7.87;;;15.40;99.90;;;;;;5074488;28;20204;-73
2021/08/17 10:30:16;;;;;;;15.23;7.90;;;15.40;99.90;;;;;;5081294;28;20426;-74
2021/08/17 10:32:55;;;;;;;12.67;7.70;;;15.40;99.90;;;;;;5079767;28;20431;-73
2021/08/17 10:35:33;;;;;;;15.07;8.40;;;15.40;99.90;;;;;;5083329;28;20184;-73
2021/08/17 10:38:34;;;;;;;15.07;8.50;;;15.40;99.90;;;;;;5082417;28;20212;-73
2021/08/17 10:41:06;;;;;;;11.17;7.33;;;15.40;99.90;;;;;;5078836;28;20176;-72
2021/08/17 10:44:04;;;;;;;15.77;7.13;;;15.30;99.90;;;;;;5082275;28;20261;-73
2021/08/17 10:47:00;;;;;;;12.03;7.03;;;15.30;99.90;;;;;;5084781;28;20212;-73
2021/08/17 10:49:52;;;;;;;13.13;7.17;;;15.30;99.90;;;;;;5082430;28;20184;-73
2021/08/17 10:52:37;;;;;;;15.77;7.70;;;15.30;99.90;;;;;;5081329;28;20343;-69
2021/08/17 10:55:33;;;;;;;11.43;7.67;;;15.20;99.90;;;;;;5082387;28;20206;-73
2021/08/17 10:58:03;;;;;;;12.77;7.47;;;15.10;99.90;;;;;;5081514;28;20186;-72
2021/08/17 11:00:52;;;;;;;12.83;6.93;;;15.10;99.90;;;;;;5085518;28;20226;-73
2021/08/17 11:03:44;;;;;;;11.17;7.03;;;15.10;99.90;;;;;;5080282;28;20384;-72
2021/08/17 11:06:40;;;;;;;12.47;7.00;;;15.10;99.90;;;;;;5081418;28;20200;-73
2021/08/17 11:09:10;;;;;;;9.60;6.57;;;15.10;99.90;;;;;;5083987;28;20184;-73
2021/08/17 11:11:41;;;;;;;12.43;6.90;;;15.10;99.90;;;;;;5083914;28;20970;-73
2021/08/17 11:14:15;;;;;;;11.40;6.93;;;15.20;99.90;;;;;;5081757;28;20192;-73
2021/08/17 11:16:50;;;;;;;12.43;6.90;;;15.20;99.90;;;;;;5082702;28;20168;-73
2021/08/17 11:19:20;;;;;;;12.30;6.83;;;15.20;99.90;;;;;;5076481;28;20183;-72
2021/08/17 11:21:51;;;;;;;10.23;7.13;;;15.20;99.90;;;;;;5084325;28;20182;-72
2021/08/17 11:24:24;;;;;;;10.07;6.57;;;15.20;99.90;;;;;;5078635;28;20176;-72
2021/08/17 11:26:56;;;;;;;10.53;6.50;;;15.30;99.90;;;;;;5080588;28;20343;-72
2021/08/17 11:29:33;;;;;;;9.03;6.43;;;15.30;99.90;;;;;;5079173;28;20187;-72
2021/08/17 11:32:04;;;;;;;8.30;5.47;;;15.40;99.90;;;;;;5077216;28;20239;-72
2021/08/17 11:34:35;;;;;;;8.60;5.80;;;15.40;99.90;;;;;;5079427;28;20180;-72
2021/08/17 11:37:10;;;;;;;9.80;5.80;;;15.50;99.90;;;;;;5077424;28;20429;-71
2021/08/17 11:39:42;;;;;;;7.20;5.93;;;15.50;99.90;;;;;;5079842;28;20229;-72
2021/08/17 11:42:13;;;;;;;6.13;5.30;;;15.50;99.90;;;;;;5083889;28;20222;-73
2021/08/17 11:44:42;;;;;;;9.73;5.90;;;15.60;99.90;;;;;;5080576;28;20192;-72
2021/08/17 11:47:12;;;;;;;9.50;5.27;;;15.50;99.90;;;;;;5078924;28;20180;-72
2021/08/17 11:49:44;;;;;;;8.70;5.93;;;15.60;99.90;;;;;;5077404;28;20191;-72
2021/08/17 11:52:17;;;;;;;8.77;6.00;;;15.60;99.90;;;;;;5080755;28;20200;-72
2021/08/17 11:54:48;;;;;;;8.70;5.23;;;15.60;99.90;;;;;;5078910;28;20200;-72
2021/08/17 11:57:28;;;;;;;7.70;5.33;;;15.70;99.90;;;;;;5078660;28;20176;-72
2021/08/17 12:00:10;;;;;;;7.50;5.47;;;15.80;99.90;;;;;;5078562;28;20208;-72
2021/08/17 12:02:41;;;;;;;7.70;5.40;;;15.90;99.90;;;;;;5079239;28;20180;-72
2021/08/17 12:05:12;;;;;;;6.97;5.53;;;15.90;99.90;;;;;;5075597;28;21312;-72
2021/08/17 12:07:43;;;;;;;7.03;5.40;;;15.90;99.90;;;;;;5071333;28;20193;-71
2021/08/17 12:10:14;;;;;;;8.37;5.70;;;16.10;99.90;;;;;;5075698;28;20185;-72
2021/08/17 12:12:56;;;;;;;7.03;5.57;;;16.00;99.90;;;;;;5081743;28;20192;-72
2021/08/17 12:15:33;;;;;;;10.03;6.20;;;16.00;99.90;;;;;;5074285;28;20320;-73
2021/08/17 12:18:04;;;;;;;11.03;6.43;;;15.80;99.90;;;;;;5078314;28;20181;-73
2021/08/17 12:20:35;;;;;;;7.97;6.27;;;15.70;99.90;;;;;;5078096;28;20189;-75
2021/08/17 12:23:17;;;;;;;9.17;6.73;;;15.60;99.90;;;;;;5081898;28;20180;-75
2021/08/17 12:25:46;;;;;;;7.90;5.97;;;15.50;99.90;;;;;;5082590;28;20208;-73
2021/08/17 12:28:29;;;;;;;9.33;6.27;;;15.30;99.90;;;;;;5079592;28;20180;-75
2021/08/17 12:31:12;;;;;;;8.93;6.63;;;15.10;99.90;;;;;;5080283;28;20223;-73
2021/08/17 12:33:43;;;;;;;12.40;7.27;;;15.10;99.90;;;;;;5082549;28;20188;-73
2021/08/17 12:36:11;;;;;;;12.27;6.87;;;15.10;99.90;;;;;;5083878;28;20179;-73
2021/08/17 12:38:41;;;;;;;11.67;7.43;;;15.10;99.90;;;;;;5078004;28;20226;-73
2021/08/17 12:41:10;;;;;;;12.37;7.37;;;15.20;99.90;;;;;;5080890;28;20184;-75
2021/08/17 12:43:41;;;;;;;10.90;7.47;;;15.20;99.90;;;;;;5081977;28;20172;-74
2021/08/17 12:46:14;;;;;;;11.17;7.70;;;15.30;99.90;;;;;;5085345;28;20208;-74
2021/08/17 12:48:46;;;;;;;10.37;7.13;;;15.30;99.90;;;;;;5075134;28;20244;-74
2021/08/17 12:51:22;;;;;;;11.10;7.00;;;15.30;99.90;;;;;;5081214;28;20176;-74